sensor_id;sensor_type;location;lat;lon;timestamp;P1;durP1;ratioP1;P2;durP2;ratioP2
70683;SDS011;58263;48.146;11.440;2023-12-28T00:01:58;4.72;;;3.05;;
70683;SDS011;58263;48.146;11.440;2023-12-28T00:04:23;5.83;;;3.40;;
70683;SDS011;58263;48.146;11.440;2023-12-28T00:06:48;9.90;;;5.00;;
70683;SDS011;58263;48.146;11.440;2023-12-28T00:09:13;12.20;;;5.00;;
70683;SDS011;58263;48.146;11.440;2023-12-28T00:11:38;12.97;;;5.77;;
70683;SDS011;58263;48.146;11.440;2023-12-28T00:14:04;13.07;;;5.63;;
70683;SDS011;58263;48.146;11.440;2023-12-28T00:16:30;10.40;;;5.03;;
70683;SDS011;58263;48.146;11.440;2023-12-28T00:18:57;5.95;;;3.13;;
70683;SDS011;58263;48.146;11.440;2023-12-28T00:21:22;7.80;;;4.00;;
70683;SDS011;58263;48.146;11.440;2023-12-28T00:23:48;8.53;;;4.13;;
70683;SDS011;58263;48.146;11.440;2023-12-28T00:26:13;8.03;;;3.80;;
70683;SDS011;58263;48.146;11.440;2023-12-28T00:28:38;10.53;;;4.30;;
70683;SDS011;58263;48.146;11.440;2023-12-28T00:31:04;9.13;;;3.87;;
70683;SDS011;58263;48.146;11.440;2023-12-28T00:33:29;7.23;;;3.43;;
70683;SDS011;58263;48.146;11.440;2023-12-28T00:35:54;5.17;;;2.70;;
70683;SDS011;58263;48.146;11.440;2023-12-28T00:38:19;7.37;;;4.20;;
70683;SDS011;58263;48.146;11.440;2023-12-28T00:40:44;4.73;;;3.40;;
70683;SDS011;58263;48.146;11.440;2023-12-28T00:43:10;5.97;;;3.63;;
70683;SDS011;58263;48.146;11.440;2023-12-28T00:45:35;7.13;;;3.63;;
70683;SDS011;58263;48.146;11.440;2023-12-28T00:48:00;7.87;;;3.30;;
70683;SDS011;58263;48.146;11.440;2023-12-28T00:50:26;4.63;;;2.90;;
70683;SDS011;58263;48.146;11.440;2023-12-28T00:52:56;6.00;;;3.53;;
70683;SDS011;58263;48.146;11.440;2023-12-28T00:55:21;7.20;;;3.37;;
70683;SDS011;58263;48.146;11.440;2023-12-28T00:57:47;8.23;;;3.40;;
70683;SDS011;58263;48.146;11.440;2023-12-28T01:00:12;10.00;;;4.53;;
70683;SDS011;58263;48.146;11.440;2023-12-28T01:02:37;11.05;;;5.03;;
70683;SDS011;58263;48.146;11.440;2023-12-28T01:05:03;11.63;;;5.80;;
70683;SDS011;58263;48.146;11.440;2023-12-28T01:07:29;8.82;;;3.78;;
70683;SDS011;58263;48.146;11.440;2023-12-28T01:09:54;6.13;;;3.30;;
70683;SDS011;58263;48.146;11.440;2023-12-28T01:12:19;7.00;;;3.47;;
70683;SDS011;58263;48.146;11.440;2023-12-28T01:14:44;6.90;;;3.33;;
70683;SDS011;58263;48.146;11.440;2023-12-28T01:17:10;4.43;;;2.70;;
70683;SDS011;58263;48.146;11.440;2023-12-28T01:19:35;4.97;;;2.60;;
70683;SDS011;58263;48.146;11.440;2023-12-28T01:22:00;6.50;;;3.27;;
70683;SDS011;58263;48.146;11.440;2023-12-28T01:24:25;6.67;;;3.13;;
70683;SDS011;58263;48.146;11.440;2023-12-28T01:26:51;4.72;;;3.05;;
70683;SDS011;58263;48.146;11.440;2023-12-28T01:29:16;3.60;;;2.57;;
70683;SDS011;58263;48.146;11.440;2023-12-28T01:31:42;3.83;;;2.57;;
70683;SDS011;58263;48.146;11.440;2023-12-28T01:34:07;5.50;;;2.97;;
70683;SDS011;58263;48.146;11.440;2023-12-28T01:36:34;5.07;;;3.40;;
70683;SDS011;58263;48.146;11.440;2023-12-28T01:38:59;5.53;;;3.23;;
70683;SDS011;58263;48.146;11.440;2023-12-28T01:41:24;7.10;;;3.73;;
70683;SDS011;58263;48.146;11.440;2023-12-28T01:43:50;6.00;;;3.50;;
70683;SDS011;58263;48.146;11.440;2023-12-28T01:46:16;7.23;;;3.90;;
70683;SDS011;58263;48.146;11.440;2023-12-28T01:48:44;7.32;;;4.00;;
70683;SDS011;58263;48.146;11.440;2023-12-28T01:51:11;6.00;;;3.83;;
70683;SDS011;58263;48.146;11.440;2023-12-28T01:53:39;7.15;;;3.03;;
70683;SDS011;58263;48.146;11.440;2023-12-28T01:56:04;5.60;;;3.25;;
70683;SDS011;58263;48.146;11.440;2023-12-28T01:58:32;5.38;;;3.15;;
70683;SDS011;58263;48.146;11.440;2023-12-28T02:01:00;5.13;;;3.30;;
70683;SDS011;58263;48.146;11.440;2023-12-28T02:03:26;6.40;;;3.30;;
70683;SDS011;58263;48.146;11.440;2023-12-28T02:05:52;5.32;;;3.33;;
70683;SDS011;58263;48.146;11.440;2023-12-28T02:08:17;5.37;;;3.00;;
70683;SDS011;58263;48.146;11.440;2023-12-28T02:10:42;4.90;;;3.40;;
70683;SDS011;58263;48.146;11.440;2023-12-28T02:13:08;6.18;;;3.05;;
70683;SDS011;58263;48.146;11.440;2023-12-28T02:15:34;5.63;;;3.75;;
70683;SDS011;58263;48.146;11.440;2023-12-28T02:18:05;5.57;;;2.60;;
70683;SDS011;58263;48.146;11.440;2023-12-28T02:20:36;4.78;;;3.30;;
70683;SDS011;58263;48.146;11.440;2023-12-28T02:23:04;4.57;;;3.20;;
70683;SDS011;58263;48.146;11.440;2023-12-28T02:25:29;5.20;;;3.13;;
70683;SDS011;58263;48.146;11.440;2023-12-28T02:27:54;6.97;;;3.10;;
70683;SDS011;58263;48.146;11.440;2023-12-28T02:30:21;6.10;;;3.47;;
70683;SDS011;58263;48.146;11.440;2023-12-28T02:32:52;4.40;;;3.35;;
70683;SDS011;58263;48.146;11.440;2023-12-28T02:35:30;6.75;;;3.40;;
70683;SDS011;58263;48.146;11.440;2023-12-28T02:37:59;3.42;;;3.05;;
70683;SDS011;58263;48.146;11.440;2023-12-28T02:40:28;5.95;;;3.17;;
70683;SDS011;58263;48.146;11.440;2023-12-28T02:42:59;4.88;;;2.92;;
70683;SDS011;58263;48.146;11.440;2023-12-28T02:45:25;6.10;;;3.30;;
70683;SDS011;58263;48.146;11.440;2023-12-28T02:47:51;4.05;;;2.70;;
70683;SDS011;58263;48.146;11.440;2023-12-28T02:50:17;6.93;;;2.93;;
70683;SDS011;58263;48.146;11.440;2023-12-28T02:52:42;7.53;;;3.70;;
70683;SDS011;58263;48.146;11.440;2023-12-28T02:55:07;4.63;;;2.92;;
70683;SDS011;58263;48.146;11.440;2023-12-28T02:57:33;4.63;;;3.08;;
70683;SDS011;58263;48.146;11.440;2023-12-28T03:00:02;6.50;;;3.47;;
70683;SDS011;58263;48.146;11.440;2023-12-28T03:02:29;15.23;;;4.93;;
70683;SDS011;58263;48.146;11.440;2023-12-28T03:04:54;31.83;;;8.93;;
70683;SDS011;58263;48.146;11.440;2023-12-28T03:07:20;24.85;;;6.57;;
70683;SDS011;58263;48.146;11.440;2023-12-28T03:09:45;16.25;;;5.28;;
70683;SDS011;58263;48.146;11.440;2023-12-28T03:12:11;8.47;;;3.80;;
70683;SDS011;58263;48.146;11.440;2023-12-28T03:14:36;10.73;;;4.27;;
70683;SDS011;58263;48.146;11.440;2023-12-28T03:17:01;5.50;;;3.40;;
70683;SDS011;58263;48.146;11.440;2023-12-28T03:19:26;3.77;;;2.60;;
70683;SDS011;58263;48.146;11.440;2023-12-28T03:21:52;5.63;;;2.90;;
70683;SDS011;58263;48.146;11.440;2023-12-28T03:24:17;6.87;;;3.90;;
70683;SDS011;58263;48.146;11.440;2023-12-28T03:26:42;4.07;;;2.67;;
70683;SDS011;58263;48.146;11.440;2023-12-28T03:29:08;3.97;;;3.07;;
70683;SDS011;58263;48.146;11.440;2023-12-28T03:31:33;5.68;;;3.00;;
70683;SDS011;58263;48.146;11.440;2023-12-28T03:33:59;3.43;;;2.70;;
70683;SDS011;58263;48.146;11.440;2023-12-28T03:36:24;5.32;;;3.00;;
70683;SDS011;58263;48.146;11.440;2023-12-28T03:38:49;3.07;;;2.13;;
70683;SDS011;58263;48.146;11.440;2023-12-28T03:41:18;3.10;;;2.33;;
70683;SDS011;58263;48.146;11.440;2023-12-28T03:43:44;3.63;;;2.47;;
70683;SDS011;58263;48.146;11.440;2023-12-28T03:46:10;3.80;;;1.80;;
70683;SDS011;58263;48.146;11.440;2023-12-28T03:48:36;3.73;;;2.40;;
70683;SDS011;58263;48.146;11.440;2023-12-28T03:51:01;4.05;;;2.05;;
70683;SDS011;58263;48.146;11.440;2023-12-28T03:53:27;3.38;;;2.13;;
70683;SDS011;58263;48.146;11.440;2023-12-28T03:55:53;4.47;;;2.30;;
70683;SDS011;58263;48.146;11.440;2023-12-28T03:58:18;1.97;;;1.83;;
70683;SDS011;58263;48.146;11.440;2023-12-28T04:00:43;12.67;;;5.10;;
70683;SDS011;58263;48.146;11.440;2023-12-28T04:03:08;6.73;;;3.23;;
70683;SDS011;58263;48.146;11.440;2023-12-28T04:05:34;4.83;;;3.20;;
70683;SDS011;58263;48.146;11.440;2023-12-28T04:07:59;4.73;;;2.53;;
70683;SDS011;58263;48.146;11.440;2023-12-28T04:10:29;3.90;;;1.60;;
70683;SDS011;58263;48.146;11.440;2023-12-28T04:12:57;3.15;;;1.90;;
70683;SDS011;58263;48.146;11.440;2023-12-28T04:15:24;2.80;;;1.60;;
70683;SDS011;58263;48.146;11.440;2023-12-28T04:17:52;1.98;;;1.48;;
70683;SDS011;58263;48.146;11.440;2023-12-28T04:20:17;3.00;;;2.00;;
70683;SDS011;58263;48.146;11.440;2023-12-28T04:22:42;2.08;;;1.30;;
70683;SDS011;58263;48.146;11.440;2023-12-28T04:25:08;1.80;;;1.65;;
70683;SDS011;58263;48.146;11.440;2023-12-28T04:27:34;3.30;;;1.73;;
70683;SDS011;58263;48.146;11.440;2023-12-28T04:30:00;3.03;;;2.13;;
70683;SDS011;58263;48.146;11.440;2023-12-28T04:32:25;2.47;;;1.75;;
70683;SDS011;58263;48.146;11.440;2023-12-28T04:34:52;3.08;;;1.48;;
70683;SDS011;58263;48.146;11.440;2023-12-28T04:37:18;1.98;;;1.73;;
70683;SDS011;58263;48.146;11.440;2023-12-28T04:39:44;3.55;;;2.10;;
70683;SDS011;58263;48.146;11.440;2023-12-28T04:42:09;3.23;;;1.77;;
70683;SDS011;58263;48.146;11.440;2023-12-28T04:44:37;3.80;;;1.60;;
70683;SDS011;58263;48.146;11.440;2023-12-28T04:47:03;2.25;;;1.45;;
70683;SDS011;58263;48.146;11.440;2023-12-28T04:49:29;1.98;;;1.52;;
70683;SDS011;58263;48.146;11.440;2023-12-28T04:51:54;2.80;;;1.40;;
70683;SDS011;58263;48.146;11.440;2023-12-28T04:54:20;2.13;;;1.30;;
70683;SDS011;58263;48.146;11.440;2023-12-28T04:56:45;2.85;;;1.60;;
70683;SDS011;58263;48.146;11.440;2023-12-28T04:59:11;1.60;;;1.40;;
70683;SDS011;58263;48.146;11.440;2023-12-28T05:01:42;3.33;;;1.70;;
70683;SDS011;58263;48.146;11.440;2023-12-28T05:04:08;2.65;;;1.67;;
70683;SDS011;58263;48.146;11.440;2023-12-28T05:06:34;2.20;;;1.80;;
70683;SDS011;58263;48.146;11.440;2023-12-28T05:08:59;1.50;;;1.40;;
70683;SDS011;58263;48.146;11.440;2023-12-28T05:11:25;1.40;;;1.23;;
70683;SDS011;58263;48.146;11.440;2023-12-28T05:13:50;3.13;;;1.60;;
70683;SDS011;58263;48.146;11.440;2023-12-28T05:16:15;2.60;;;1.60;;
70683;SDS011;58263;48.146;11.440;2023-12-28T05:18:40;2.03;;;1.40;;
70683;SDS011;58263;48.146;11.440;2023-12-28T05:21:06;3.90;;;1.83;;
70683;SDS011;58263;48.146;11.440;2023-12-28T05:23:31;1.87;;;1.70;;
70683;SDS011;58263;48.146;11.440;2023-12-28T05:25:56;1.87;;;1.53;;
70683;SDS011;58263;48.146;11.440;2023-12-28T05:28:21;1.77;;;1.50;;
70683;SDS011;58263;48.146;11.440;2023-12-28T05:30:47;2.83;;;1.43;;
70683;SDS011;58263;48.146;11.440;2023-12-28T05:33:12;3.57;;;1.80;;
70683;SDS011;58263;48.146;11.440;2023-12-28T05:35:37;1.93;;;1.57;;
70683;SDS011;58263;48.146;11.440;2023-12-28T05:38:03;1.67;;;1.57;;
70683;SDS011;58263;48.146;11.440;2023-12-28T05:40:28;2.00;;;1.77;;
70683;SDS011;58263;48.146;11.440;2023-12-28T05:42:53;1.73;;;1.30;;
70683;SDS011;58263;48.146;11.440;2023-12-28T05:45:18;1.53;;;1.43;;
70683;SDS011;58263;48.146;11.440;2023-12-28T05:47:44;1.73;;;1.63;;
70683;SDS011;58263;48.146;11.440;2023-12-28T05:50:09;2.27;;;1.87;;
70683;SDS011;58263;48.146;11.440;2023-12-28T05:52:35;3.67;;;2.40;;
70683;SDS011;58263;48.146;11.440;2023-12-28T05:55:00;1.83;;;1.60;;
70683;SDS011;58263;48.146;11.440;2023-12-28T05:57:25;1.63;;;1.45;;
70683;SDS011;58263;48.146;11.440;2023-12-28T05:59:54;1.00;;;1.00;;
70683;SDS011;58263;48.146;11.440;2023-12-28T06:02:20;2.80;;;2.10;;
70683;SDS011;58263;48.146;11.440;2023-12-28T06:04:45;1.90;;;1.80;;
70683;SDS011;58263;48.146;11.440;2023-12-28T06:07:10;1.90;;;1.40;;
70683;SDS011;58263;48.146;11.440;2023-12-28T06:09:35;1.97;;;1.80;;
70683;SDS011;58263;48.146;11.440;2023-12-28T06:12:03;1.42;;;1.33;;
70683;SDS011;58263;48.146;11.440;2023-12-28T06:14:29;3.13;;;1.65;;
70683;SDS011;58263;48.146;11.440;2023-12-28T06:16:55;1.95;;;1.60;;
70683;SDS011;58263;48.146;11.440;2023-12-28T06:19:20;1.85;;;1.27;;
70683;SDS011;58263;48.146;11.440;2023-12-28T06:21:46;2.33;;;1.70;;
70683;SDS011;58263;48.146;11.440;2023-12-28T06:24:12;1.48;;;1.38;;
70683;SDS011;58263;48.146;11.440;2023-12-28T06:26:43;1.70;;;1.60;;
70683;SDS011;58263;48.146;11.440;2023-12-28T06:29:09;1.38;;;1.25;;
70683;SDS011;58263;48.146;11.440;2023-12-28T06:31:35;1.98;;;1.65;;
70683;SDS011;58263;48.146;11.440;2023-12-28T06:34:04;2.25;;;1.80;;
70683;SDS011;58263;48.146;11.440;2023-12-28T06:36:32;2.13;;;1.83;;
70683;SDS011;58263;48.146;11.440;2023-12-28T06:38:58;3.28;;;1.85;;
70683;SDS011;58263;48.146;11.440;2023-12-28T06:41:24;2.92;;;1.90;;
70683;SDS011;58263;48.146;11.440;2023-12-28T06:43:50;4.30;;;2.47;;
70683;SDS011;58263;48.146;11.440;2023-12-28T06:46:15;2.33;;;1.83;;
70683;SDS011;58263;48.146;11.440;2023-12-28T06:48:40;2.80;;;2.27;;
70683;SDS011;58263;48.146;11.440;2023-12-28T06:51:06;2.28;;;1.80;;
70683;SDS011;58263;48.146;11.440;2023-12-28T06:53:32;2.78;;;1.95;;
70683;SDS011;58263;48.146;11.440;2023-12-28T06:55:57;4.13;;;1.80;;
70683;SDS011;58263;48.146;11.440;2023-12-28T06:58:22;3.43;;;2.27;;
70683;SDS011;58263;48.146;11.440;2023-12-28T07:00:47;2.90;;;1.80;;
70683;SDS011;58263;48.146;11.440;2023-12-28T07:03:12;2.50;;;1.90;;
70683;SDS011;58263;48.146;11.440;2023-12-28T07:05:38;3.43;;;2.23;;
70683;SDS011;58263;48.146;11.440;2023-12-28T07:08:03;2.70;;;2.07;;
70683;SDS011;58263;48.146;11.440;2023-12-28T07:10:29;3.28;;;2.05;;
70683;SDS011;58263;48.146;11.440;2023-12-28T07:12:54;3.23;;;2.27;;
70683;SDS011;58263;48.146;11.440;2023-12-28T07:15:19;4.20;;;2.00;;
70683;SDS011;58263;48.146;11.440;2023-12-28T07:17:44;3.43;;;2.10;;
70683;SDS011;58263;48.146;11.440;2023-12-28T07:20:10;11.33;;;5.20;;
70683;SDS011;58263;48.146;11.440;2023-12-28T07:22:35;2.90;;;2.13;;
70683;SDS011;58263;48.146;11.440;2023-12-28T07:25:01;4.55;;;2.63;;
70683;SDS011;58263;48.146;11.440;2023-12-28T07:27:27;4.57;;;2.43;;
70683;SDS011;58263;48.146;11.440;2023-12-28T07:29:53;3.30;;;1.85;;
70683;SDS011;58263;48.146;11.440;2023-12-28T07:32:18;1.70;;;1.60;;
70683;SDS011;58263;48.146;11.440;2023-12-28T07:34:45;2.13;;;1.95;;
70683;SDS011;58263;48.146;11.440;2023-12-28T07:37:10;2.47;;;1.87;;
70683;SDS011;58263;48.146;11.440;2023-12-28T07:39:35;2.87;;;1.80;;
70683;SDS011;58263;48.146;11.440;2023-12-28T07:42:01;2.90;;;2.00;;
70683;SDS011;58263;48.146;11.440;2023-12-28T07:44:26;4.13;;;1.97;;
70683;SDS011;58263;48.146;11.440;2023-12-28T07:46:52;4.10;;;1.80;;
70683;SDS011;58263;48.146;11.440;2023-12-28T07:49:17;2.73;;;2.17;;
70683;SDS011;58263;48.146;11.440;2023-12-28T07:51:42;3.63;;;1.70;;
70683;SDS011;58263;48.146;11.440;2023-12-28T07:54:07;1.57;;;1.47;;
70683;SDS011;58263;48.146;11.440;2023-12-28T07:56:33;1.57;;;1.47;;
70683;SDS011;58263;48.146;11.440;2023-12-28T07:58:58;2.43;;;1.50;;
70683;SDS011;58263;48.146;11.440;2023-12-28T08:01:23;1.70;;;1.60;;
70683;SDS011;58263;48.146;11.440;2023-12-28T08:03:50;2.25;;;1.50;;
70683;SDS011;58263;48.146;11.440;2023-12-28T08:06:15;2.17;;;1.90;;
70683;SDS011;58263;48.146;11.440;2023-12-28T08:08:41;1.83;;;1.60;;
70683;SDS011;58263;48.146;11.440;2023-12-28T08:11:06;2.85;;;1.50;;
70683;SDS011;58263;48.146;11.440;2023-12-28T08:13:31;1.93;;;1.73;;
70683;SDS011;58263;48.146;11.440;2023-12-28T08:15:57;3.30;;;1.60;;
70683;SDS011;58263;48.146;11.440;2023-12-28T08:18:22;1.67;;;1.40;;
70683;SDS011;58263;48.146;11.440;2023-12-28T08:20:47;1.80;;;1.33;;
70683;SDS011;58263;48.146;11.440;2023-12-28T08:23:14;2.22;;;1.90;;
70683;SDS011;58263;48.146;11.440;2023-12-28T08:25:39;2.10;;;1.73;;
70683;SDS011;58263;48.146;11.440;2023-12-28T08:28:04;1.70;;;1.60;;
70683;SDS011;58263;48.146;11.440;2023-12-28T08:30:30;3.08;;;1.75;;
70683;SDS011;58263;48.146;11.440;2023-12-28T08:32:55;3.40;;;1.53;;
70683;SDS011;58263;48.146;11.440;2023-12-28T08:35:20;3.87;;;2.00;;
70683;SDS011;58263;48.146;11.440;2023-12-28T08:37:46;3.07;;;2.00;;
70683;SDS011;58263;48.146;11.440;2023-12-28T08:40:11;4.87;;;3.03;;
70683;SDS011;58263;48.146;11.440;2023-12-28T08:42:36;3.35;;;2.47;;
70683;SDS011;58263;48.146;11.440;2023-12-28T08:45:02;5.00;;;2.30;;
70683;SDS011;58263;48.146;11.440;2023-12-28T08:47:27;4.18;;;2.53;;
70683;SDS011;58263;48.146;11.440;2023-12-28T08:49:53;2.47;;;1.83;;
70683;SDS011;58263;48.146;11.440;2023-12-28T08:52:18;5.67;;;2.00;;
70683;SDS011;58263;48.146;11.440;2023-12-28T08:54:43;2.30;;;1.90;;
70683;SDS011;58263;48.146;11.440;2023-12-28T08:57:09;3.15;;;1.88;;
70683;SDS011;58263;48.146;11.440;2023-12-28T08:59:37;2.13;;;1.90;;
70683;SDS011;58263;48.146;11.440;2023-12-28T09:02:02;3.63;;;2.13;;
70683;SDS011;58263;48.146;11.440;2023-12-28T09:04:28;3.08;;;1.90;;
70683;SDS011;58263;48.146;11.440;2023-12-28T09:06:53;3.83;;;2.33;;
70683;SDS011;58263;48.146;11.440;2023-12-28T09:09:19;5.53;;;2.23;;
70683;SDS011;58263;48.146;11.440;2023-12-28T09:11:44;4.57;;;1.90;;
70683;SDS011;58263;48.146;11.440;2023-12-28T09:14:09;5.30;;;2.10;;
70683;SDS011;58263;48.146;11.440;2023-12-28T09:16:34;3.97;;;2.17;;
70683;SDS011;58263;48.146;11.440;2023-12-28T09:19:00;7.03;;;2.00;;
70683;SDS011;58263;48.146;11.440;2023-12-28T09:21:25;2.97;;;1.73;;
70683;SDS011;58263;48.146;11.440;2023-12-28T09:23:51;3.63;;;1.50;;
70683;SDS011;58263;48.146;11.440;2023-12-28T09:26:16;1.95;;;1.17;;
70683;SDS011;58263;48.146;11.440;2023-12-28T09:28:43;1.33;;;1.27;;
70683;SDS011;58263;48.146;11.440;2023-12-28T09:31:08;2.65;;;0.80;;
70683;SDS011;58263;48.146;11.440;2023-12-28T09:33:34;0.93;;;0.93;;
70683;SDS011;58263;48.146;11.440;2023-12-28T09:35:59;1.67;;;1.20;;
70683;SDS011;58263;48.146;11.440;2023-12-28T09:38:25;0.97;;;0.97;;
70683;SDS011;58263;48.146;11.440;2023-12-28T09:40:52;1.05;;;1.05;;
70683;SDS011;58263;48.146;11.440;2023-12-28T09:43:22;1.45;;;0.90;;
70683;SDS011;58263;48.146;11.440;2023-12-28T09:45:50;1.73;;;1.13;;
70683;SDS011;58263;48.146;11.440;2023-12-28T09:48:16;6.55;;;2.67;;
70683;SDS011;58263;48.146;11.440;2023-12-28T09:50:43;1.63;;;1.45;;
70683;SDS011;58263;48.146;11.440;2023-12-28T09:53:10;1.65;;;1.00;;
70683;SDS011;58263;48.146;11.440;2023-12-28T09:55:37;1.88;;;1.02;;
70683;SDS011;58263;48.146;11.440;2023-12-28T09:58:02;0.60;;;0.60;;
70683;SDS011;58263;48.146;11.440;2023-12-28T10:00:30;1.13;;;1.10;;
70683;SDS011;58263;48.146;11.440;2023-12-28T10:02:56;1.20;;;1.10;;
70683;SDS011;58263;48.146;11.440;2023-12-28T10:05:21;1.20;;;1.20;;
70683;SDS011;58263;48.146;11.440;2023-12-28T10:07:47;1.13;;;1.03;;
70683;SDS011;58263;48.146;11.440;2023-12-28T10:10:13;0.90;;;0.90;;
70683;SDS011;58263;48.146;11.440;2023-12-28T10:12:38;1.03;;;1.00;;
70683;SDS011;58263;48.146;11.440;2023-12-28T10:15:06;1.10;;;1.00;;
70683;SDS011;58263;48.146;11.440;2023-12-28T10:19:58;2.08;;;1.70;;
70683;SDS011;58263;48.146;11.440;2023-12-28T10:22:30;1.52;;;1.38;;
70683;SDS011;58263;48.146;11.440;2023-12-28T10:24:56;1.88;;;1.42;;
70683;SDS011;58263;48.146;11.440;2023-12-28T10:27:22;1.58;;;1.17;;
70683;SDS011;58263;48.146;11.440;2023-12-28T10:29:47;1.87;;;1.60;;
70683;SDS011;58263;48.146;11.440;2023-12-28T10:32:13;2.47;;;1.67;;
70683;SDS011;58263;48.146;11.440;2023-12-28T10:34:38;11.80;;;6.63;;
70683;SDS011;58263;48.146;11.440;2023-12-28T10:37:03;5.13;;;2.70;;
70683;SDS011;58263;48.146;11.440;2023-12-28T10:39:30;2.60;;;1.80;;
70683;SDS011;58263;48.146;11.440;2023-12-28T10:41:58;1.33;;;1.23;;
70683;SDS011;58263;48.146;11.440;2023-12-28T10:44:28;2.55;;;1.77;;
70683;SDS011;58263;48.146;11.440;2023-12-28T10:47:00;2.40;;;1.60;;
70683;SDS011;58263;48.146;11.440;2023-12-28T10:49:27;1.67;;;1.58;;
70683;SDS011;58263;48.146;11.440;2023-12-28T10:51:55;1.50;;;1.40;;
70683;SDS011;58263;48.146;11.440;2023-12-28T10:54:33;2.65;;;2.15;;
70683;SDS011;58263;48.146;11.440;2023-12-28T10:57:22;2.42;;;1.73;;
70683;SDS011;58263;48.146;11.440;2023-12-28T11:02:33;6.25;;;3.05;;
70683;SDS011;58263;48.146;11.440;2023-12-28T11:05:16;5.03;;;2.97;;
70683;SDS011;58263;48.146;11.440;2023-12-28T11:07:43;2.22;;;1.95;;
70683;SDS011;58263;48.146;11.440;2023-12-28T11:10:09;4.88;;;1.75;;
70683;SDS011;58263;48.146;11.440;2023-12-28T11:12:35;1.27;;;1.17;;
70683;SDS011;58263;48.146;11.440;2023-12-28T11:15:01;2.55;;;1.27;;
70683;SDS011;58263;48.146;11.440;2023-12-28T11:17:28;2.53;;;1.90;;
70683;SDS011;58263;48.146;11.440;2023-12-28T11:19:55;3.25;;;1.30;;
70683;SDS011;58263;48.146;11.440;2023-12-28T11:22:22;2.70;;;1.65;;
70683;SDS011;58263;48.146;11.440;2023-12-28T11:24:49;1.67;;;1.30;;
70683;SDS011;58263;48.146;11.440;2023-12-28T11:27:18;9.55;;;6.15;;
70683;SDS011;58263;48.146;11.440;2023-12-28T11:29:43;6.95;;;3.13;;
70683;SDS011;58263;48.146;11.440;2023-12-28T11:32:10;6.55;;;4.10;;
70683;SDS011;58263;48.146;11.440;2023-12-28T11:34:35;15.53;;;9.63;;
70683;SDS011;58263;48.146;11.440;2023-12-28T11:37:03;9.95;;;5.15;;
70683;SDS011;58263;48.146;11.440;2023-12-28T11:39:32;3.53;;;2.40;;
70683;SDS011;58263;48.146;11.440;2023-12-28T11:44:30;6.10;;;2.53;;
70683;SDS011;58263;48.146;11.440;2023-12-28T11:46:56;4.28;;;2.53;;
70683;SDS011;58263;48.146;11.440;2023-12-28T11:49:25;2.40;;;1.70;;
70683;SDS011;58263;48.146;11.440;2023-12-28T11:51:59;2.38;;;1.67;;
70683;SDS011;58263;48.146;11.440;2023-12-28T11:54:24;2.38;;;1.40;;
70683;SDS011;58263;48.146;11.440;2023-12-28T11:56:51;2.28;;;1.45;;
70683;SDS011;58263;48.146;11.440;2023-12-28T11:59:17;2.03;;;1.50;;
70683;SDS011;58263;48.146;11.440;2023-12-28T12:01:43;2.08;;;1.35;;
70683;SDS011;58263;48.146;11.440;2023-12-28T12:04:08;2.53;;;1.40;;
70683;SDS011;58263;48.146;11.440;2023-12-28T12:06:33;5.93;;;1.50;;
70683;SDS011;58263;48.146;11.440;2023-12-28T12:08:58;1.60;;;1.30;;
70683;SDS011;58263;48.146;11.440;2023-12-28T12:11:24;2.30;;;1.13;;
70683;SDS011;58263;48.146;11.440;2023-12-28T12:13:50;1.13;;;1.00;;
70683;SDS011;58263;48.146;11.440;2023-12-28T12:16:16;1.55;;;1.40;;
70683;SDS011;58263;48.146;11.440;2023-12-28T12:18:42;3.00;;;1.73;;
70683;SDS011;58263;48.146;11.440;2023-12-28T12:21:07;2.30;;;1.70;;
70683;SDS011;58263;48.146;11.440;2023-12-28T12:23:33;1.30;;;1.20;;
70683;SDS011;58263;48.146;11.440;2023-12-28T12:25:58;1.30;;;1.20;;
70683;SDS011;58263;48.146;11.440;2023-12-28T12:28:23;1.73;;;1.40;;
70683;SDS011;58263;48.146;11.440;2023-12-28T12:30:49;1.17;;;1.10;;
70683;SDS011;58263;48.146;11.440;2023-12-28T12:33:17;1.55;;;1.10;;
70683;SDS011;58263;48.146;11.440;2023-12-28T12:35:42;2.28;;;1.17;;
70683;SDS011;58263;48.146;11.440;2023-12-28T12:38:08;2.35;;;0.93;;
70683;SDS011;58263;48.146;11.440;2023-12-28T12:40:33;3.95;;;1.73;;
70683;SDS011;58263;48.146;11.440;2023-12-28T12:42:59;2.05;;;1.30;;
70683;SDS011;58263;48.146;11.440;2023-12-28T12:45:25;3.33;;;1.65;;
70683;SDS011;58263;48.146;11.440;2023-12-28T12:47:51;3.65;;;1.95;;
70683;SDS011;58263;48.146;11.440;2023-12-28T12:50:16;1.70;;;1.55;;
70683;SDS011;58263;48.146;11.440;2023-12-28T12:52:42;1.65;;;1.55;;
70683;SDS011;58263;48.146;11.440;2023-12-28T12:55:10;3.55;;;1.52;;
70683;SDS011;58263;48.146;11.440;2023-12-28T12:57:36;4.32;;;2.30;;
70683;SDS011;58263;48.146;11.440;2023-12-28T13:00:03;6.53;;;2.67;;
70683;SDS011;58263;48.146;11.440;2023-12-28T13:02:33;2.97;;;2.00;;
70683;SDS011;58263;48.146;11.440;2023-12-28T13:04:58;3.40;;;1.90;;
70683;SDS011;58263;48.146;11.440;2023-12-28T13:07:24;1.58;;;1.48;;
70683;SDS011;58263;48.146;11.440;2023-12-28T13:09:49;2.40;;;1.63;;
70683;SDS011;58263;48.146;11.440;2023-12-28T13:12:15;2.50;;;2.30;;
70683;SDS011;58263;48.146;11.440;2023-12-28T13:14:40;2.50;;;1.80;;
70683;SDS011;58263;48.146;11.440;2023-12-28T13:17:06;2.77;;;1.70;;
70683;SDS011;58263;48.146;11.440;2023-12-28T13:19:31;1.77;;;1.50;;
70683;SDS011;58263;48.146;11.440;2023-12-28T13:21:56;3.50;;;2.37;;
70683;SDS011;58263;48.146;11.440;2023-12-28T13:24:21;8.53;;;3.63;;
70683;SDS011;58263;48.146;11.440;2023-12-28T13:26:47;8.47;;;3.33;;
70683;SDS011;58263;48.146;11.440;2023-12-28T13:29:12;9.27;;;4.80;;
70683;SDS011;58263;48.146;11.440;2023-12-28T13:31:38;6.05;;;3.63;;
70683;SDS011;58263;48.146;11.440;2023-12-28T13:34:04;9.13;;;3.78;;
70683;SDS011;58263;48.146;11.440;2023-12-28T13:36:29;10.80;;;4.90;;
70683;SDS011;58263;48.146;11.440;2023-12-28T13:38:54;5.20;;;2.87;;
70683;SDS011;58263;48.146;11.440;2023-12-28T13:41:20;12.03;;;6.40;;
70683;SDS011;58263;48.146;11.440;2023-12-28T13:43:45;5.63;;;3.47;;
70683;SDS011;58263;48.146;11.440;2023-12-28T13:46:11;4.70;;;3.10;;
70683;SDS011;58263;48.146;11.440;2023-12-28T13:48:36;8.00;;;3.78;;
70683;SDS011;58263;48.146;11.440;2023-12-28T13:51:04;13.48;;;6.13;;
70683;SDS011;58263;48.146;11.440;2023-12-28T13:53:30;13.75;;;5.95;;
70683;SDS011;58263;48.146;11.440;2023-12-28T13:55:56;4.75;;;3.40;;
70683;SDS011;58263;48.146;11.440;2023-12-28T13:58:21;7.67;;;3.77;;
70683;SDS011;58263;48.146;11.440;2023-12-28T14:00:47;3.83;;;2.80;;
70683;SDS011;58263;48.146;11.440;2023-12-28T14:03:12;4.93;;;3.00;;
70683;SDS011;58263;48.146;11.440;2023-12-28T14:05:37;13.93;;;6.33;;
70683;SDS011;58263;48.146;11.440;2023-12-28T14:08:02;10.73;;;5.33;;
70683;SDS011;58263;48.146;11.440;2023-12-28T14:10:28;19.55;;;10.00;;
70683;SDS011;58263;48.146;11.440;2023-12-28T14:12:53;6.87;;;4.00;;
70683;SDS011;58263;48.146;11.440;2023-12-28T14:15:18;6.87;;;4.53;;
70683;SDS011;58263;48.146;11.440;2023-12-28T14:17:44;6.63;;;3.97;;
70683;SDS011;58263;48.146;11.440;2023-12-28T14:20:09;8.67;;;4.27;;
70683;SDS011;58263;48.146;11.440;2023-12-28T14:22:37;9.80;;;4.97;;
70683;SDS011;58263;48.146;11.440;2023-12-28T14:25:03;9.40;;;4.75;;
70683;SDS011;58263;48.146;11.440;2023-12-28T14:27:29;4.88;;;2.88;;
70683;SDS011;58263;48.146;11.440;2023-12-28T14:29:55;16.85;;;7.82;;
70683;SDS011;58263;48.146;11.440;2023-12-28T14:32:21;10.38;;;4.55;;
70683;SDS011;58263;48.146;11.440;2023-12-28T14:34:46;7.28;;;3.55;;